sensor_id;sensor_type;location;lat;lon;timestamp;temperature;humidity
69895;DHT22;57172;52.034;5.090;2022-12-18T00:01:25;-2.10;77.00
69895;DHT22;57172;52.034;5.090;2022-12-18T00:03:54;-2.00;76.90
69895;DHT22;57172;52.034;5.090;2022-12-18T00:06:24;-2.00;76.70
69895;DHT22;57172;52.034;5.090;2022-12-18T00:08:52;-2.00;76.70
69895;DHT22;57172;52.034;5.090;2022-12-18T00:11:21;-2.00;76.50
69895;DHT22;57172;52.034;5.090;2022-12-18T00:13:48;-2.00;76.40
69895;DHT22;57172;52.034;5.090;2022-12-18T00:16:18;-2.00;76.10
69895;DHT22;57172;52.034;5.090;2022-12-18T00:18:52;-2.00;76.10
69895;DHT22;57172;52.034;5.090;2022-12-18T00:21:20;-2.00;76.10
69895;DHT22;57172;52.034;5.090;2022-12-18T00:23:48;-2.10;76.00
69895;DHT22;57172;52.034;5.090;2022-12-18T00:26:18;-2.10;76.00
69895;DHT22;57172;52.034;5.090;2022-12-18T00:28:45;-2.10;75.90
69895;DHT22;57172;52.034;5.090;2022-12-18T00:31:18;-2.10;76.00
69895;DHT22;57172;52.034;5.090;2022-12-18T00:33:46;-2.10;76.20
69895;DHT22;57172;52.034;5.090;2022-12-18T00:36:18;-2.10;76.10
69895;DHT22;57172;52.034;5.090;2022-12-18T00:38:46;-2.10;76.00
69895;DHT22;57172;52.034;5.090;2022-12-18T00:41:17;-2.10;76.10
69895;DHT22;57172;52.034;5.090;2022-12-18T00:44:06;-2.10;76.10
69895;DHT22;57172;52.034;5.090;2022-12-18T00:46:33;-2.10;76.10
69895;DHT22;57172;52.034;5.090;2022-12-18T00:49:01;-2.10;76.00
69895;DHT22;57172;52.034;5.090;2022-12-18T00:51:28;-2.20;76.00
69895;DHT22;57172;52.034;5.090;2022-12-18T00:53:55;-2.10;76.00
69895;DHT22;57172;52.034;5.090;2022-12-18T00:56:22;-2.10;76.10
69895;DHT22;57172;52.034;5.090;2022-12-18T00:58:49;-2.10;76.00
69895;DHT22;57172;52.034;5.090;2022-12-18T01:01:16;-2.10;75.80
69895;DHT22;57172;52.034;5.090;2022-12-18T01:03:43;-2.20;75.50
69895;DHT22;57172;52.034;5.090;2022-12-18T01:06:13;-2.20;75.40
69895;DHT22;57172;52.034;5.090;2022-12-18T01:08:40;-2.30;75.30
69895;DHT22;57172;52.034;5.090;2022-12-18T01:11:18;-2.30;75.30
69895;DHT22;57172;52.034;5.090;2022-12-18T01:13:45;-2.30;75.30
69895;DHT22;57172;52.034;5.090;2022-12-18T01:16:14;-2.40;75.30
69895;DHT22;57172;52.034;5.090;2022-12-18T01:18:41;-2.40;75.20
69895;DHT22;57172;52.034;5.090;2022-12-18T01:21:10;-2.40;75.30
69895;DHT22;57172;52.034;5.090;2022-12-18T01:23:38;-2.40;75.30
69895;DHT22;57172;52.034;5.090;2022-12-18T01:26:11;-2.40;75.40
69895;DHT22;57172;52.034;5.090;2022-12-18T01:28:39;-2.40;75.40
69895;DHT22;57172;52.034;5.090;2022-12-18T01:31:21;-2.50;75.50
69895;DHT22;57172;52.034;5.090;2022-12-18T01:33:50;-2.50;75.60
69895;DHT22;57172;52.034;5.090;2022-12-18T01:38:47;-2.40;75.60
69895;DHT22;57172;52.034;5.090;2022-12-18T01:41:16;-2.50;75.50
69895;DHT22;57172;52.034;5.090;2022-12-18T01:43:49;-2.50;75.50
69895;DHT22;57172;52.034;5.090;2022-12-18T01:46:18;-2.50;75.40
69895;DHT22;57172;52.034;5.090;2022-12-18T01:48:48;-2.50;75.50
69895;DHT22;57172;52.034;5.090;2022-12-18T01:51:16;-2.50;75.40
69895;DHT22;57172;52.034;5.090;2022-12-18T01:53:44;-2.50;75.30
69895;DHT22;57172;52.034;5.090;2022-12-18T01:56:13;-2.50;75.20
69895;DHT22;57172;52.034;5.090;2022-12-18T01:58:43;-2.50;75.00
69895;DHT22;57172;52.034;5.090;2022-12-18T02:01:13;-2.50;75.10
69895;DHT22;57172;52.034;5.090;2022-12-18T02:03:42;-2.50;74.90
69895;DHT22;57172;52.034;5.090;2022-12-18T02:06:24;-2.60;74.80
69895;DHT22;57172;52.034;5.090;2022-12-18T02:09:09;-2.60;74.80
69895;DHT22;57172;52.034;5.090;2022-12-18T02:14:23;-2.70;74.70
69895;DHT22;57172;52.034;5.090;2022-12-18T02:17:21;-2.70;74.80
69895;DHT22;57172;52.034;5.090;2022-12-18T02:22:57;-2.80;74.90
69895;DHT22;57172;52.034;5.090;2022-12-18T02:25:43;-2.80;74.70
69895;DHT22;57172;52.034;5.090;2022-12-18T02:28:15;-2.80;74.60
69895;DHT22;57172;52.034;5.090;2022-12-18T02:30:47;-2.80;74.50
69895;DHT22;57172;52.034;5.090;2022-12-18T02:33:15;-2.80;74.70
69895;DHT22;57172;52.034;5.090;2022-12-18T02:35:46;-2.80;74.70
69895;DHT22;57172;52.034;5.090;2022-12-18T02:38:33;-2.80;74.90
69895;DHT22;57172;52.034;5.090;2022-12-18T02:41:07;-2.80;74.80
69895;DHT22;57172;52.034;5.090;2022-12-18T02:43:35;-2.80;74.80
69895;DHT22;57172;52.034;5.090;2022-12-18T02:46:36;-2.80;74.60
69895;DHT22;57172;52.034;5.090;2022-12-18T03:00:37;-3.10;74.00
69895;DHT22;57172;52.034;5.090;2022-12-18T03:03:16;-3.20;73.90
69895;DHT22;57172;52.034;5.090;2022-12-18T03:05:53;-3.30;73.80
69895;DHT22;57172;52.034;5.090;2022-12-18T03:08:26;-3.30;73.80
69895;DHT22;57172;52.034;5.090;2022-12-18T03:11:08;-3.30;73.70
69895;DHT22;57172;52.034;5.090;2022-12-18T03:13:46;-3.40;73.60
69895;DHT22;57172;52.034;5.090;2022-12-18T03:16:20;-3.40;73.60
69895;DHT22;57172;52.034;5.090;2022-12-18T03:18:55;-3.50;73.50
69895;DHT22;57172;52.034;5.090;2022-12-18T03:21:42;-3.50;73.60
69895;DHT22;57172;52.034;5.090;2022-12-18T03:24:11;-3.60;73.50
69895;DHT22;57172;52.034;5.090;2022-12-18T03:26:42;-3.60;73.60
69895;DHT22;57172;52.034;5.090;2022-12-18T03:29:18;-3.60;73.70
69895;DHT22;57172;52.034;5.090;2022-12-18T03:31:49;-3.70;73.70
69895;DHT22;57172;52.034;5.090;2022-12-18T03:34:23;-3.70;73.70
69895;DHT22;57172;52.034;5.090;2022-12-18T03:36:53;-3.70;73.70
69895;DHT22;57172;52.034;5.090;2022-12-18T03:39:22;-3.80;73.70
69895;DHT22;57172;52.034;5.090;2022-12-18T03:44:49;-3.80;73.70
69895;DHT22;57172;52.034;5.090;2022-12-18T03:47:27;-3.80;73.60
69895;DHT22;57172;52.034;5.090;2022-12-18T03:50:13;-3.90;73.60
69895;DHT22;57172;52.034;5.090;2022-12-18T03:53:28;-3.90;73.70
69895;DHT22;57172;52.034;5.090;2022-12-18T03:55:49;-3.90;73.80
69895;DHT22;57172;52.034;5.090;2022-12-18T03:58:20;-3.90;73.80
69895;DHT22;57172;52.034;5.090;2022-12-18T04:00:57;-4.00;73.80
69895;DHT22;57172;52.034;5.090;2022-12-18T04:03:29;-4.00;73.80
69895;DHT22;57172;52.034;5.090;2022-12-18T04:05:57;-4.00;73.80
69895;DHT22;57172;52.034;5.090;2022-12-18T04:08:26;-4.00;73.80
69895;DHT22;57172;52.034;5.090;2022-12-18T04:11:01;-4.00;73.70
69895;DHT22;57172;52.034;5.090;2022-12-18T04:13:37;-4.10;73.70
69895;DHT22;57172;52.034;5.090;2022-12-18T04:16:09;-4.10;73.70
69895;DHT22;57172;52.034;5.090;2022-12-18T04:18:40;-4.10;73.80
69895;DHT22;57172;52.034;5.090;2022-12-18T04:21:07;-4.10;73.80
69895;DHT22;57172;52.034;5.090;2022-12-18T04:23:35;-4.10;73.80
69895;DHT22;57172;52.034;5.090;2022-12-18T04:26:03;-4.10;73.80
69895;DHT22;57172;52.034;5.090;2022-12-18T04:29:02;-4.20;73.70
69895;DHT22;57172;52.034;5.090;2022-12-18T04:31:29;-4.20;73.70
69895;DHT22;57172;52.034;5.090;2022-12-18T04:33:57;-4.20;73.70
69895;DHT22;57172;52.034;5.090;2022-12-18T04:36:24;-4.20;73.70
69895;DHT22;57172;52.034;5.090;2022-12-18T04:38:52;-4.30;73.70
69895;DHT22;57172;52.034;5.090;2022-12-18T04:41:19;-4.30;73.70
69895;DHT22;57172;52.034;5.090;2022-12-18T04:43:47;-4.30;73.70
69895;DHT22;57172;52.034;5.090;2022-12-18T04:46:14;-4.30;73.70
69895;DHT22;57172;52.034;5.090;2022-12-18T04:48:41;-4.30;73.60
69895;DHT22;57172;52.034;5.090;2022-12-18T04:51:08;-4.30;73.60
69895;DHT22;57172;52.034;5.090;2022-12-18T04:53:36;-4.40;73.60
69895;DHT22;57172;52.034;5.090;2022-12-18T04:56:09;-4.40;73.60
69895;DHT22;57172;52.034;5.090;2022-12-18T04:58:37;-4.40;73.60
69895;DHT22;57172;52.034;5.090;2022-12-18T05:01:04;-4.40;73.40
69895;DHT22;57172;52.034;5.090;2022-12-18T05:03:31;-4.40;73.40
69895;DHT22;57172;52.034;5.090;2022-12-18T05:06:01;-4.50;73.40
69895;DHT22;57172;52.034;5.090;2022-12-18T05:08:27;-4.50;73.40
69895;DHT22;57172;52.034;5.090;2022-12-18T05:11:13;-4.50;73.40
69895;DHT22;57172;52.034;5.090;2022-12-18T05:13:43;-4.50;73.40
69895;DHT22;57172;52.034;5.090;2022-12-18T05:16:11;-4.50;73.50
69895;DHT22;57172;52.034;5.090;2022-12-18T05:18:39;-4.60;73.50
69895;DHT22;57172;52.034;5.090;2022-12-18T05:21:06;-4.60;73.40
69895;DHT22;57172;52.034;5.090;2022-12-18T05:23:33;-4.60;73.40
69895;DHT22;57172;52.034;5.090;2022-12-18T05:26:02;-4.60;73.30
69895;DHT22;57172;52.034;5.090;2022-12-18T05:28:30;-4.70;73.40
69895;DHT22;57172;52.034;5.090;2022-12-18T05:31:00;-4.70;73.30
69895;DHT22;57172;52.034;5.090;2022-12-18T05:33:29;-4.70;73.30
69895;DHT22;57172;52.034;5.090;2022-12-18T05:35:59;-4.70;73.40
69895;DHT22;57172;52.034;5.090;2022-12-18T05:38:27;-4.70;73.40
69895;DHT22;57172;52.034;5.090;2022-12-18T05:40:54;-4.70;73.50
69895;DHT22;57172;52.034;5.090;2022-12-18T05:43:23;-4.70;73.50
69895;DHT22;57172;52.034;5.090;2022-12-18T05:45:50;-4.70;73.50
69895;DHT22;57172;52.034;5.090;2022-12-18T05:48:18;-4.70;73.60
69895;DHT22;57172;52.034;5.090;2022-12-18T05:50:46;-4.70;73.50
69895;DHT22;57172;52.034;5.090;2022-12-18T05:53:18;-4.70;73.40
69895;DHT22;57172;52.034;5.090;2022-12-18T05:55:46;-4.80;73.40
69895;DHT22;57172;52.034;5.090;2022-12-18T05:58:14;-4.80;73.60
69895;DHT22;57172;52.034;5.090;2022-12-18T06:00:43;-4.80;73.60
69895;DHT22;57172;52.034;5.090;2022-12-18T06:03:11;-4.80;73.60
69895;DHT22;57172;52.034;5.090;2022-12-18T06:05:40;-4.80;73.50
69895;DHT22;57172;52.034;5.090;2022-12-18T06:08:08;-4.80;73.50
69895;DHT22;57172;52.034;5.090;2022-12-18T06:10:36;-4.80;73.60
69895;DHT22;57172;52.034;5.090;2022-12-18T06:13:04;-4.80;73.60
69895;DHT22;57172;52.034;5.090;2022-12-18T06:15:31;-4.80;73.60
69895;DHT22;57172;52.034;5.090;2022-12-18T06:18:00;-4.80;73.70
69895;DHT22;57172;52.034;5.090;2022-12-18T06:20:27;-4.80;73.70
69895;DHT22;57172;52.034;5.090;2022-12-18T06:22:59;-4.80;73.70
69895;DHT22;57172;52.034;5.090;2022-12-18T06:25:26;-4.80;73.50
69895;DHT22;57172;52.034;5.090;2022-12-18T06:27:53;-4.80;73.50
69895;DHT22;57172;52.034;5.090;2022-12-18T06:30:20;-4.80;73.50
69895;DHT22;57172;52.034;5.090;2022-12-18T06:32:50;-4.90;73.60
69895;DHT22;57172;52.034;5.090;2022-12-18T06:35:23;-4.90;73.60
69895;DHT22;57172;52.034;5.090;2022-12-18T06:37:50;-4.90;73.60
69895;DHT22;57172;52.034;5.090;2022-12-18T06:40:18;-4.90;73.60
69895;DHT22;57172;52.034;5.090;2022-12-18T06:42:45;-4.90;73.60
69895;DHT22;57172;52.034;5.090;2022-12-18T06:45:12;-4.90;73.70
69895;DHT22;57172;52.034;5.090;2022-12-18T06:47:38;-4.90;73.70
69895;DHT22;57172;52.034;5.090;2022-12-18T06:50:06;-4.90;73.70
69895;DHT22;57172;52.034;5.090;2022-12-18T06:52:33;-4.90;73.70
69895;DHT22;57172;52.034;5.090;2022-12-18T06:55:00;-4.90;73.80
69895;DHT22;57172;52.034;5.090;2022-12-18T06:57:27;-4.90;73.80
69895;DHT22;57172;52.034;5.090;2022-12-18T06:59:54;-4.90;73.80
69895;DHT22;57172;52.034;5.090;2022-12-18T07:02:21;-4.90;73.70
69895;DHT22;57172;52.034;5.090;2022-12-18T07:04:48;-4.90;73.80
69895;DHT22;57172;52.034;5.090;2022-12-18T07:07:15;-4.90;73.70
69895;DHT22;57172;52.034;5.090;2022-12-18T07:09:49;-4.90;73.80
69895;DHT22;57172;52.034;5.090;2022-12-18T07:12:17;-4.90;73.80
69895;DHT22;57172;52.034;5.090;2022-12-18T07:14:44;-4.90;73.70
69895;DHT22;57172;52.034;5.090;2022-12-18T07:17:11;-4.90;73.70
69895;DHT22;57172;52.034;5.090;2022-12-18T07:19:39;-4.90;73.60
69895;DHT22;57172;52.034;5.090;2022-12-18T07:22:06;-4.90;73.60
69895;DHT22;57172;52.034;5.090;2022-12-18T07:24:33;-4.90;73.60
69895;DHT22;57172;52.034;5.090;2022-12-18T07:27:01;-5.00;73.70
69895;DHT22;57172;52.034;5.090;2022-12-18T07:29:28;-5.00;73.80
69895;DHT22;57172;52.034;5.090;2022-12-18T07:31:55;-5.00;73.80
69895;DHT22;57172;52.034;5.090;2022-12-18T07:34:22;-5.00;73.90
69895;DHT22;57172;52.034;5.090;2022-12-18T07:36:49;-4.90;74.10
69895;DHT22;57172;52.034;5.090;2022-12-18T07:39:15;-4.90;74.10
69895;DHT22;57172;52.034;5.090;2022-12-18T07:41:42;-4.90;74.10
69895;DHT22;57172;52.034;5.090;2022-12-18T07:44:15;-4.90;74.20
69895;DHT22;57172;52.034;5.090;2022-12-18T07:46:42;-4.80;74.20
69895;DHT22;57172;52.034;5.090;2022-12-18T07:49:08;-4.80;74.20
69895;DHT22;57172;52.034;5.090;2022-12-18T07:51:35;-4.80;74.30
69895;DHT22;57172;52.034;5.090;2022-12-18T07:54:02;-4.80;74.30
69895;DHT22;57172;52.034;5.090;2022-12-18T07:56:29;-4.80;74.40
69895;DHT22;57172;52.034;5.090;2022-12-18T07:58:58;-4.80;74.40
69895;DHT22;57172;52.034;5.090;2022-12-18T08:01:25;-4.70;74.50
69895;DHT22;57172;52.034;5.090;2022-12-18T08:03:53;-4.70;74.50
69895;DHT22;57172;52.034;5.090;2022-12-18T08:06:19;-4.70;74.60
69895;DHT22;57172;52.034;5.090;2022-12-18T08:08:51;-4.60;74.60
69895;DHT22;57172;52.034;5.090;2022-12-18T08:11:19;-4.60;74.60
69895;DHT22;57172;52.034;5.090;2022-12-18T08:13:47;-4.50;74.70
69895;DHT22;57172;52.034;5.090;2022-12-18T08:16:15;-4.50;74.90
69895;DHT22;57172;52.034;5.090;2022-12-18T08:18:42;-4.40;74.90
69895;DHT22;57172;52.034;5.090;2022-12-18T08:21:17;-4.30;74.90
69895;DHT22;57172;52.034;5.090;2022-12-18T08:23:47;-4.30;74.70
69895;DHT22;57172;52.034;5.090;2022-12-18T08:26:15;-4.20;74.90
69895;DHT22;57172;52.034;5.090;2022-12-18T08:28:42;-4.20;74.80
69895;DHT22;57172;52.034;5.090;2022-12-18T08:31:09;-4.10;74.90
69895;DHT22;57172;52.034;5.090;2022-12-18T08:33:37;-4.10;74.90
69895;DHT22;57172;52.034;5.090;2022-12-18T08:36:08;-4.00;75.00
69895;DHT22;57172;52.034;5.090;2022-12-18T08:38:35;-4.00;75.00
69895;DHT22;57172;52.034;5.090;2022-12-18T08:41:07;-3.90;74.90
69895;DHT22;57172;52.034;5.090;2022-12-18T08:43:36;-3.90;74.90
69895;DHT22;57172;52.034;5.090;2022-12-18T08:46:24;-3.80;75.10
69895;DHT22;57172;52.034;5.090;2022-12-18T08:48:52;-3.70;75.00
69895;DHT22;57172;52.034;5.090;2022-12-18T08:51:19;-3.70;75.00
69895;DHT22;57172;52.034;5.090;2022-12-18T08:53:47;-3.60;75.30
69895;DHT22;57172;52.034;5.090;2022-12-18T08:56:14;-3.50;75.60
69895;DHT22;57172;52.034;5.090;2022-12-18T08:58:42;-3.30;75.50
69895;DHT22;57172;52.034;5.090;2022-12-18T09:01:11;-3.20;75.40
69895;DHT22;57172;52.034;5.090;2022-12-18T09:03:39;-3.10;75.00
69895;DHT22;57172;52.034;5.090;2022-12-18T09:06:07;-3.00;74.80
69895;DHT22;57172;52.034;5.090;2022-12-18T09:08:34;-3.00;74.80
69895;DHT22;57172;52.034;5.090;2022-12-18T09:11:00;-2.90;74.80
69895;DHT22;57172;52.034;5.090;2022-12-18T09:13:27;-2.80;74.70
69895;DHT22;57172;52.034;5.090;2022-12-18T09:15:55;-2.80;74.30
69895;DHT22;57172;52.034;5.090;2022-12-18T09:18:23;-2.70;74.00
69895;DHT22;57172;52.034;5.090;2022-12-18T09:20:50;-2.70;74.20
69895;DHT22;57172;52.034;5.090;2022-12-18T09:23:20;-2.60;73.80
69895;DHT22;57172;52.034;5.090;2022-12-18T09:25:47;-2.60;73.80
69895;DHT22;57172;52.034;5.090;2022-12-18T09:28:16;-2.50;73.80
69895;DHT22;57172;52.034;5.090;2022-12-18T09:30:46;-2.50;73.70
69895;DHT22;57172;52.034;5.090;2022-12-18T09:33:13;-2.40;73.50
69895;DHT22;57172;52.034;5.090;2022-12-18T09:35:43;-2.40;73.50
69895;DHT22;57172;52.034;5.090;2022-12-18T09:38:13;-2.30;73.30
69895;DHT22;57172;52.034;5.090;2022-12-18T09:40:44;-2.30;73.40
69895;DHT22;57172;52.034;5.090;2022-12-18T09:43:17;-2.20;73.40
69895;DHT22;57172;52.034;5.090;2022-12-18T09:45:49;-2.20;72.80
69895;DHT22;57172;52.034;5.090;2022-12-18T09:48:28;-2.10;73.10
69895;DHT22;57172;52.034;5.090;2022-12-18T09:51:03;-2.00;73.30
69895;DHT22;57172;52.034;5.090;2022-12-18T09:53:33;-1.90;73.10
69895;DHT22;57172;52.034;5.090;2022-12-18T09:56:03;-1.90;72.80
69895;DHT22;57172;52.034;5.090;2022-12-18T09:58:36;-1.90;72.60
69895;DHT22;57172;52.034;5.090;2022-12-18T10:01:12;-1.80;72.80
69895;DHT22;57172;52.034;5.090;2022-12-18T10:03:44;-1.70;72.80
69895;DHT22;57172;52.034;5.090;2022-12-18T10:06:32;-1.70;72.60
69895;DHT22;57172;52.034;5.090;2022-12-18T10:20:49;-1.60;71.80
69895;DHT22;57172;52.034;5.090;2022-12-18T10:26:08;-1.50;71.60
69895;DHT22;57172;52.034;5.090;2022-12-18T10:28:37;-1.50;71.70
69895;DHT22;57172;52.034;5.090;2022-12-18T10:31:16;-1.50;71.60
69895;DHT22;57172;52.034;5.090;2022-12-18T10:33:44;-1.40;71.70
69895;DHT22;57172;52.034;5.090;2022-12-18T10:36:11;-1.40;71.40
69895;DHT22;57172;52.034;5.090;2022-12-18T10:38:38;-1.40;71.40
69895;DHT22;57172;52.034;5.090;2022-12-18T10:41:24;-1.30;71.50
69895;DHT22;57172;52.034;5.090;2022-12-18T10:44:18;-1.30;71.40
69895;DHT22;57172;52.034;5.090;2022-12-18T10:46:48;-1.30;70.90
69895;DHT22;57172;52.034;5.090;2022-12-18T10:49:22;-1.30;70.80
69895;DHT22;57172;52.034;5.090;2022-12-18T10:51:50;-1.30;71.00
69895;DHT22;57172;52.034;5.090;2022-12-18T10:54:21;-1.20;70.80
69895;DHT22;57172;52.034;5.090;2022-12-18T10:56:49;-1.20;71.00
69895;DHT22;57172;52.034;5.090;2022-12-18T10:59:17;-1.10;71.00
69895;DHT22;57172;52.034;5.090;2022-12-18T11:04:30;-1.10;70.60
69895;DHT22;57172;52.034;5.090;2022-12-18T11:09:37;-1.00;70.90
69895;DHT22;57172;52.034;5.090;2022-12-18T11:12:15;-0.90;70.70
69895;DHT22;57172;52.034;5.090;2022-12-18T11:14:47;-0.90;70.50
69895;DHT22;57172;52.034;5.090;2022-12-18T11:17:35;-0.80;70.50
69895;DHT22;57172;52.034;5.090;2022-12-18T11:20:04;-0.80;70.50
69895;DHT22;57172;52.034;5.090;2022-12-18T11:22:35;-0.80;70.20
69895;DHT22;57172;52.034;5.090;2022-12-18T11:25:07;-0.70;70.50
69895;DHT22;57172;52.034;5.090;2022-12-18T11:28:05;-0.60;70.40
69895;DHT22;57172;52.034;5.090;2022-12-18T11:30:35;-0.60;69.90
69895;DHT22;57172;52.034;5.090;2022-12-18T11:33:18;-0.60;69.80
69895;DHT22;57172;52.034;5.090;2022-12-18T11:35:50;-0.60;69.90
69895;DHT22;57172;52.034;5.090;2022-12-18T11:38:22;-0.60;69.80
69895;DHT22;57172;52.034;5.090;2022-12-18T11:40:58;-0.50;69.80
69895;DHT22;57172;52.034;5.090;2022-12-18T11:43:42;-0.40;70.00
69895;DHT22;57172;52.034;5.090;2022-12-18T11:46:18;-0.40;69.90
69895;DHT22;57172;52.034;5.090;2022-12-18T11:49:01;-0.40;69.20
69895;DHT22;57172;52.034;5.090;2022-12-18T11:51:44;-0.40;69.30
69895;DHT22;57172;52.034;5.090;2022-12-18T11:54:14;-0.30;69.50
69895;DHT22;57172;52.034;5.090;2022-12-18T11:56:55;-0.30;69.50
69895;DHT22;57172;52.034;5.090;2022-12-18T11:59:32;-0.20;69.10
69895;DHT22;57172;52.034;5.090;2022-12-18T12:07:56;-0.10;69.20
69895;DHT22;57172;52.034;5.090;2022-12-18T12:11:14;-0.10;68.80
69895;DHT22;57172;52.034;5.090;2022-12-18T12:16:41;-0.10;68.40
69895;DHT22;57172;52.034;5.090;2022-12-18T12:22:32;-0.10;68.50
69895;DHT22;57172;52.034;5.090;2022-12-18T12:25:21;-0.10;68.30
69895;DHT22;57172;52.034;5.090;2022-12-18T12:28:15;-0.10;68.10
69895;DHT22;57172;52.034;5.090;2022-12-18T12:31:23;0.00;68.20
69895;DHT22;57172;52.034;5.090;2022-12-18T12:33:55;0.00;68.20
69895;DHT22;57172;52.034;5.090;2022-12-18T12:36:30;0.00;68.10
69895;DHT22;57172;52.034;5.090;2022-12-18T12:39:11;0.10;68.10
69895;DHT22;57172;52.034;5.090;2022-12-18T12:41:42;0.10;68.30
69895;DHT22;57172;52.034;5.090;2022-12-18T12:44:33;0.20;68.10
69895;DHT22;57172;52.034;5.090;2022-12-18T12:47:13;0.20;67.90
69895;DHT22;57172;52.034;5.090;2022-12-18T12:49:42;0.20;68.00
69895;DHT22;57172;52.034;5.090;2022-12-18T12:52:22;0.20;68.00
69895;DHT22;57172;52.034;5.090;2022-12-18T12:54:53;0.30;67.80
69895;DHT22;57172;52.034;5.090;2022-12-18T12:57:21;0.30;67.90
69895;DHT22;57172;52.034;5.090;2022-12-18T13:00:12;0.30;67.80
69895;DHT22;57172;52.034;5.090;2022-12-18T13:08:04;0.30;67.50
69895;DHT22;57172;52.034;5.090;2022-12-18T13:10:40;0.20;67.50
69895;DHT22;57172;52.034;5.090;2022-12-18T13:13:15;0.20;67.70
69895;DHT22;57172;52.034;5.090;2022-12-18T13:16:04;0.30;67.70
69895;DHT22;57172;52.034;5.090;2022-12-18T13:18:33;0.30;67.50
69895;DHT22;57172;52.034;5.090;2022-12-18T13:23:35;0.30;67.60
69895;DHT22;57172;52.034;5.090;2022-12-18T13:31:14;0.30;67.30
69895;DHT22;57172;52.034;5.090;2022-12-18T13:33:45;0.30;67.30
69895;DHT22;57172;52.034;5.090;2022-12-18T13:36:33;0.30;67.20
69895;DHT22;57172;52.034;5.090;2022-12-18T13:42:31;0.20;67.20
69895;DHT22;57172;52.034;5.090;2022-12-18T13:48:26;0.20;67.30
69895;DHT22;57172;52.034;5.090;2022-12-18T13:51:06;0.20;67.30
69895;DHT22;57172;52.034;5.090;2022-12-18T13:53:44;0.20;67.40
69895;DHT22;57172;52.034;5.090;2022-12-18T13:56:25;0.20;67.30
69895;DHT22;57172;52.034;5.090;2022-12-18T13:59:19;0.30;67.40
69895;DHT22;57172;52.034;5.090;2022-12-18T14:01:57;0.20;67.30
69895;DHT22;57172;52.034;5.090;2022-12-18T14:04:27;0.20;67.30
69895;DHT22;57172;52.034;5.090;2022-12-18T14:09:53;0.20;67.50
69895;DHT22;57172;52.034;5.090;2022-12-18T14:12:38;0.30;67.50
69895;DHT22;57172;52.034;5.090;2022-12-18T14:15:34;0.30;67.50
69895;DHT22;57172;52.034;5.090;2022-12-18T14:18:22;0.30;67.50
69895;DHT22;57172;52.034;5.090;2022-12-18T14:20:56;0.30;67.50
69895;DHT22;57172;52.034;5.090;2022-12-18T14:23:40;0.30;67.30
69895;DHT22;57172;52.034;5.090;2022-12-18T14:26:28;0.30;67.50
69895;DHT22;57172;52.034;5.090;2022-12-18T14:28:58;0.30;67.40
69895;DHT22;57172;52.034;5.090;2022-12-18T14:31:29;0.30;67.20
69895;DHT22;57172;52.034;5.090;2022-12-18T14:33:56;0.30;67.30
69895;DHT22;57172;52.034;5.090;2022-12-18T14:36:26;0.30;67.30
69895;DHT22;57172;52.034;5.090;2022-12-18T14:38:55;0.30;67.30
69895;DHT22;57172;52.034;5.090;2022-12-18T14:41:23;0.30;67.40
69895;DHT22;57172;52.034;5.090;2022-12-18T14:43:52;0.30;67.30
69895;DHT22;57172;52.034;5.090;2022-12-18T14:46:29;0.30;67.20
69895;DHT22;57172;52.034;5.090;2022-12-18T14:48:57;0.30;67.20
69895;DHT22;57172;52.034;5.090;2022-12-18T14:51:27;0.30;67.30
69895;DHT22;57172;52.034;5.090;2022-12-18T14:53:56;0.30;67.30
69895;DHT22;57172;52.034;5.090;2022-12-18T14:56:33;0.30;67.20
69895;DHT22;57172;52.034;5.090;2022-12-18T14:59:14;0.30;67.20
69895;DHT22;57172;52.034;5.090;2022-12-18T15:07:03;0.30;67.00
69895;DHT22;57172;52.034;5.090;2022-12-18T15:09:30;0.30;66.60
69895;DHT22;57172;52.034;5.090;2022-12-18T15:11:59;0.30;66.60
69895;DHT22;57172;52.034;5.090;2022-12-18T15:17:18;0.30;66.80
69895;DHT22;57172;52.034;5.090;2022-12-18T15:19:47;0.30;66.80
69895;DHT22;57172;52.034;5.090;2022-12-18T15:22:24;0.30;66.70
69895;DHT22;57172;52.034;5.090;2022-12-18T15:24:51;0.30;66.80
69895;DHT22;57172;52.034;5.090;2022-12-18T15:27:27;0.30;66.80
69895;DHT22;57172;52.034;5.090;2022-12-18T15:32:36;0.30;66.70
69895;DHT22;57172;52.034;5.090;2022-12-18T15:37:36;0.30;66.70
69895;DHT22;57172;52.034;5.090;2022-12-18T15:40:05;0.20;66.70
69895;DHT22;57172;52.034;5.090;2022-12-18T15:42:32;0.20;66.70
69895;DHT22;57172;52.034;5.090;2022-12-18T15:45:17;0.20;66.70
69895;DHT22;57172;52.034;5.090;2022-12-18T15:47:45;0.20;66.60
69895;DHT22;57172;52.034;5.090;2022-12-18T15:50:12;0.20;66.50
69895;DHT22;57172;52.034;5.090;2022-12-18T15:52:41;0.20;66.40
69895;DHT22;57172;52.034;5.090;2022-12-18T15:55:22;0.20;66.40
69895;DHT22;57172;52.034;5.090;2022-12-18T15:58:10;0.20;66.40
69895;DHT22;57172;52.034;5.090;2022-12-18T16:00:40;0.20;66.30
69895;DHT22;57172;52.034;5.090;2022-12-18T16:03:08;0.20;66.30
69895;DHT22;57172;52.034;5.090;2022-12-18T16:05:36;0.20;66.30
69895;DHT22;57172;52.034;5.090;2022-12-18T16:08:03;0.20;66.10
69895;DHT22;57172;52.034;5.090;2022-12-18T16:10:30;0.20;66.20
69895;DHT22;57172;52.034;5.090;2022-12-18T16:12:57;0.20;66.10
69895;DHT22;57172;52.034;5.090;2022-12-18T16:15:23;0.20;66.00
69895;DHT22;57172;52.034;5.090;2022-12-18T16:17:50;0.20;66.20
69895;DHT22;57172;52.034;5.090;2022-12-18T16:20:20;0.30;66.10
69895;DHT22;57172;52.034;5.090;2022-12-18T16:22:48;0.30;66.00
69895;DHT22;57172;52.034;5.090;2022-12-18T16:25:17;0.30;65.80
69895;DHT22;57172;52.034;5.090;2022-12-18T16:27:44;0.30;65.70
69895;DHT22;57172;52.034;5.090;2022-12-18T16:30:15;0.30;65.70
69895;DHT22;57172;52.034;5.090;2022-12-18T16:32:43;0.30;65.90
69895;DHT22;57172;52.034;5.090;2022-12-18T16:35:14;0.30;65.80
69895;DHT22;57172;52.034;5.090;2022-12-18T16:37:41;0.30;65.80
69895;DHT22;57172;52.034;5.090;2022-12-18T16:40:14;0.30;65.70
69895;DHT22;57172;52.034;5.090;2022-12-18T16:42:42;0.30;65.70
69895;DHT22;57172;52.034;5.090;2022-12-18T16:45:16;0.30;65.80
69895;DHT22;57172;52.034;5.090;2022-12-18T16:47:44;0.30;65.90
69895;DHT22;57172;52.034;5.090;2022-12-18T16:50:11;0.30;65.80
69895;DHT22;57172;52.034;5.090;2022-12-18T16:52:38;0.40;65.80
69895;DHT22;57172;52.034;5.090;2022-12-18T16:55:05;0.40;65.80
69895;DHT22;57172;52.034;5.090;2022-12-18T16:57:32;0.40;65.70
69895;DHT22;57172;52.034;5.090;2022-12-18T16:59:59;0.40;65.70
69895;DHT22;57172;52.034;5.090;2022-12-18T17:02:31;0.40;65.80
69895;DHT22;57172;52.034;5.090;2022-12-18T17:04:58;0.40;65.80
69895;DHT22;57172;52.034;5.090;2022-12-18T17:07:26;0.40;65.80
69895;DHT22;57172;52.034;5.090;2022-12-18T17:09:54;0.40;65.80
69895;DHT22;57172;52.034;5.090;2022-12-18T17:12:21;0.40;65.70
69895;DHT22;57172;52.034;5.090;2022-12-18T17:14:48;0.50;65.80
69895;DHT22;57172;52.034;5.090;2022-12-18T17:17:16;0.50;65.70
69895;DHT22;57172;52.034;5.090;2022-12-18T17:19:48;0.50;65.80
69895;DHT22;57172;52.034;5.090;2022-12-18T17:22:15;0.50;65.80
69895;DHT22;57172;52.034;5.090;2022-12-18T17:24:42;0.60;65.70
69895;DHT22;57172;52.034;5.090;2022-12-18T17:27:09;0.60;65.60
69895;DHT22;57172;52.034;5.090;2022-12-18T17:29:36;0.50;65.70
69895;DHT22;57172;52.034;5.090;2022-12-18T17:32:10;0.60;65.80
69895;DHT22;57172;52.034;5.090;2022-12-18T17:34:39;0.60;65.80